sensor_id;sensor_type;location;lat;lon;timestamp;P1;durP1;ratioP1;P2;durP2;ratioP2
12059;SDS011;6091;51.432;6.880;2022-10-31T00:01:40;2.80;;;2.50;;
12059;SDS011;6091;51.432;6.880;2022-10-31T00:04:07;2.60;;;2.40;;
12059;SDS011;6091;51.432;6.880;2022-10-31T00:06:35;2.70;;;2.50;;
12059;SDS011;6091;51.432;6.880;2022-10-31T00:09:05;2.92;;;2.40;;
12059;SDS011;6091;51.432;6.880;2022-10-31T00:11:32;2.42;;;2.22;;
12059;SDS011;6091;51.432;6.880;2022-10-31T00:14:00;2.67;;;2.47;;
12059;SDS011;6091;51.432;6.880;2022-10-31T00:16:29;2.72;;;2.50;;
12059;SDS011;6091;51.432;6.880;2022-10-31T00:19:00;2.75;;;2.55;;
12059;SDS011;6091;51.432;6.880;2022-10-31T00:21:30;2.67;;;2.40;;
12059;SDS011;6091;51.432;6.880;2022-10-31T00:23:58;2.60;;;2.40;;
12059;SDS011;6091;51.432;6.880;2022-10-31T00:26:27;2.63;;;2.42;;
12059;SDS011;6091;51.432;6.880;2022-10-31T00:28:57;2.90;;;2.70;;
12059;SDS011;6091;51.432;6.880;2022-10-31T00:31:25;2.75;;;2.45;;
12059;SDS011;6091;51.432;6.880;2022-10-31T00:33:52;3.90;;;2.55;;
12059;SDS011;6091;51.432;6.880;2022-10-31T00:36:19;2.60;;;2.40;;
12059;SDS011;6091;51.432;6.880;2022-10-31T00:38:48;2.65;;;2.45;;
12059;SDS011;6091;51.432;6.880;2022-10-31T00:41:16;2.70;;;2.50;;
12059;SDS011;6091;51.432;6.880;2022-10-31T00:43:49;3.03;;;2.40;;
12059;SDS011;6091;51.432;6.880;2022-10-31T00:46:16;2.70;;;2.30;;
12059;SDS011;6091;51.432;6.880;2022-10-31T00:48:43;2.80;;;2.60;;
12059;SDS011;6091;51.432;6.880;2022-10-31T00:51:13;2.60;;;2.40;;
12059;SDS011;6091;51.432;6.880;2022-10-31T00:53:42;2.90;;;2.40;;
12059;SDS011;6091;51.432;6.880;2022-10-31T00:56:12;3.03;;;2.63;;
12059;SDS011;6091;51.432;6.880;2022-10-31T00:58:39;2.80;;;2.50;;
12059;SDS011;6091;51.432;6.880;2022-10-31T01:01:07;2.50;;;2.30;;
12059;SDS011;6091;51.432;6.880;2022-10-31T01:03:34;2.40;;;2.20;;
12059;SDS011;6091;51.432;6.880;2022-10-31T01:06:03;2.53;;;2.30;;
12059;SDS011;6091;51.432;6.880;2022-10-31T01:08:37;3.20;;;2.88;;
12059;SDS011;6091;51.432;6.880;2022-10-31T01:13:37;2.42;;;2.22;;
12059;SDS011;6091;51.432;6.880;2022-10-31T01:16:05;3.10;;;2.80;;
12059;SDS011;6091;51.432;6.880;2022-10-31T01:18:36;2.88;;;2.50;;
12059;SDS011;6091;51.432;6.880;2022-10-31T01:23:35;2.60;;;2.40;;
12059;SDS011;6091;51.432;6.880;2022-10-31T01:26:11;2.60;;;2.40;;
12059;SDS011;6091;51.432;6.880;2022-10-31T01:28:48;2.60;;;2.40;;
12059;SDS011;6091;51.432;6.880;2022-10-31T01:31:19;3.15;;;2.70;;
12059;SDS011;6091;51.432;6.880;2022-10-31T01:33:50;2.47;;;2.28;;
12059;SDS011;6091;51.432;6.880;2022-10-31T01:36:21;2.33;;;2.22;;
12059;SDS011;6091;51.432;6.880;2022-10-31T01:39:00;2.65;;;2.45;;
12059;SDS011;6091;51.432;6.880;2022-10-31T01:41:32;2.58;;;2.38;;
12059;SDS011;6091;51.432;6.880;2022-10-31T01:49:43;2.78;;;2.58;;
12059;SDS011;6091;51.432;6.880;2022-10-31T01:52:24;2.15;;;2.05;;
12059;SDS011;6091;51.432;6.880;2022-10-31T01:55:03;2.78;;;2.50;;
12059;SDS011;6091;51.432;6.880;2022-10-31T01:57:53;2.42;;;2.20;;
12059;SDS011;6091;51.432;6.880;2022-10-31T02:00:27;2.58;;;2.33;;
12059;SDS011;6091;51.432;6.880;2022-10-31T02:02:54;2.60;;;2.40;;
12059;SDS011;6091;51.432;6.880;2022-10-31T02:05:23;2.60;;;2.40;;
12059;SDS011;6091;51.432;6.880;2022-10-31T02:07:56;2.45;;;2.25;;
12059;SDS011;6091;51.432;6.880;2022-10-31T02:10:33;2.75;;;2.38;;
12059;SDS011;6091;51.432;6.880;2022-10-31T02:13:04;2.50;;;2.30;;
12059;SDS011;6091;51.432;6.880;2022-10-31T02:15:35;2.70;;;2.50;;
12059;SDS011;6091;51.432;6.880;2022-10-31T02:18:05;2.55;;;2.35;;
12059;SDS011;6091;51.432;6.880;2022-10-31T02:21:11;2.95;;;2.35;;
12059;SDS011;6091;51.432;6.880;2022-10-31T02:30:07;2.55;;;2.35;;
12059;SDS011;6091;51.432;6.880;2022-10-31T02:35:43;3.03;;;2.40;;
12059;SDS011;6091;51.432;6.880;2022-10-31T02:38:48;2.40;;;2.20;;
12059;SDS011;6091;51.432;6.880;2022-10-31T02:42:40;2.45;;;2.25;;
12059;SDS011;6091;51.432;6.880;2022-10-31T02:45:50;2.35;;;2.15;;
12059;SDS011;6091;51.432;6.880;2022-10-31T02:48:33;2.40;;;2.20;;
12059;SDS011;6091;51.432;6.880;2022-10-31T02:51:05;2.40;;;2.20;;
12059;SDS011;6091;51.432;6.880;2022-10-31T02:53:35;2.75;;;2.22;;
12059;SDS011;6091;51.432;6.880;2022-10-31T02:56:09;2.53;;;2.33;;
12059;SDS011;6091;51.432;6.880;2022-10-31T02:58:48;2.72;;;2.45;;
12059;SDS011;6091;51.432;6.880;2022-10-31T03:04:32;2.53;;;2.30;;
12059;SDS011;6091;51.432;6.880;2022-10-31T03:13:03;2.33;;;2.13;;
12059;SDS011;6091;51.432;6.880;2022-10-31T03:15:44;2.40;;;2.20;;
12059;SDS011;6091;51.432;6.880;2022-10-31T03:18:26;2.63;;;2.42;;
12059;SDS011;6091;51.432;6.880;2022-10-31T03:21:15;2.95;;;2.30;;
12059;SDS011;6091;51.432;6.880;2022-10-31T03:23:54;2.25;;;2.05;;
12059;SDS011;6091;51.432;6.880;2022-10-31T03:26:25;2.28;;;2.08;;
12059;SDS011;6091;51.432;6.880;2022-10-31T03:29:02;2.40;;;2.20;;
12059;SDS011;6091;51.432;6.880;2022-10-31T03:31:37;2.60;;;2.40;;
12059;SDS011;6091;51.432;6.880;2022-10-31T03:34:30;2.65;;;2.38;;
12059;SDS011;6091;51.432;6.880;2022-10-31T03:37:00;2.38;;;2.17;;
12059;SDS011;6091;51.432;6.880;2022-10-31T03:39:33;2.30;;;2.10;;
12059;SDS011;6091;51.432;6.880;2022-10-31T03:42:10;2.60;;;2.40;;
12059;SDS011;6091;51.432;6.880;2022-10-31T03:44:43;2.47;;;2.28;;
12059;SDS011;6091;51.432;6.880;2022-10-31T03:47:17;3.33;;;2.30;;
12059;SDS011;6091;51.432;6.880;2022-10-31T03:49:44;2.28;;;2.08;;
12059;SDS011;6091;51.432;6.880;2022-10-31T03:54:55;2.38;;;2.17;;
12059;SDS011;6091;51.432;6.880;2022-10-31T03:58:02;3.28;;;2.38;;
12059;SDS011;6091;51.432;6.880;2022-10-31T04:00:37;2.63;;;2.42;;
12059;SDS011;6091;51.432;6.880;2022-10-31T04:03:12;2.40;;;2.20;;
12059;SDS011;6091;51.432;6.880;2022-10-31T04:05:59;4.28;;;2.25;;
12059;SDS011;6091;51.432;6.880;2022-10-31T04:08:33;2.50;;;2.30;;
12059;SDS011;6091;51.432;6.880;2022-10-31T04:11:11;2.30;;;2.10;;
12059;SDS011;6091;51.432;6.880;2022-10-31T04:13:43;2.50;;;2.30;;
12059;SDS011;6091;51.432;6.880;2022-10-31T04:16:13;2.53;;;2.33;;
12059;SDS011;6091;51.432;6.880;2022-10-31T04:18:46;2.58;;;2.38;;
12059;SDS011;6091;51.432;6.880;2022-10-31T04:21:13;2.20;;;2.10;;
12059;SDS011;6091;51.432;6.880;2022-10-31T04:23:44;2.08;;;1.98;;
12059;SDS011;6091;51.432;6.880;2022-10-31T04:26:11;2.75;;;2.55;;
12059;SDS011;6091;51.432;6.880;2022-10-31T04:28:39;2.20;;;2.00;;
12059;SDS011;6091;51.432;6.880;2022-10-31T04:31:09;2.30;;;2.08;;
12059;SDS011;6091;51.432;6.880;2022-10-31T04:33:41;2.58;;;2.38;;
12059;SDS011;6091;51.432;6.880;2022-10-31T04:36:08;2.10;;;1.90;;
12059;SDS011;6091;51.432;6.880;2022-10-31T04:38:38;2.28;;;2.10;;
12059;SDS011;6091;51.432;6.880;2022-10-31T04:41:05;2.22;;;2.08;;
12059;SDS011;6091;51.432;6.880;2022-10-31T04:43:37;2.22;;;2.03;;
12059;SDS011;6091;51.432;6.880;2022-10-31T04:46:04;2.45;;;2.20;;
12059;SDS011;6091;51.432;6.880;2022-10-31T04:48:31;2.17;;;1.98;;
12059;SDS011;6091;51.432;6.880;2022-10-31T04:51:04;2.30;;;2.10;;
12059;SDS011;6091;51.432;6.880;2022-10-31T04:53:32;2.40;;;2.20;;
12059;SDS011;6091;51.432;6.880;2022-10-31T04:56:02;2.30;;;2.10;;
12059;SDS011;6091;51.432;6.880;2022-10-31T04:58:30;2.72;;;2.53;;
12059;SDS011;6091;51.432;6.880;2022-10-31T05:01:04;2.33;;;2.13;;
12059;SDS011;6091;51.432;6.880;2022-10-31T05:03:34;2.42;;;2.22;;
12059;SDS011;6091;51.432;6.880;2022-10-31T05:06:02;2.70;;;2.50;;
12059;SDS011;6091;51.432;6.880;2022-10-31T05:08:30;2.38;;;2.17;;
12059;SDS011;6091;51.432;6.880;2022-10-31T05:11:00;2.42;;;2.22;;
12059;SDS011;6091;51.432;6.880;2022-10-31T05:13:32;2.33;;;2.13;;
12059;SDS011;6091;51.432;6.880;2022-10-31T05:16:02;2.70;;;2.50;;
12059;SDS011;6091;51.432;6.880;2022-10-31T05:18:31;2.53;;;2.33;;
12059;SDS011;6091;51.432;6.880;2022-10-31T05:20:59;1.90;;;1.80;;
12059;SDS011;6091;51.432;6.880;2022-10-31T05:23:26;2.45;;;2.05;;
12059;SDS011;6091;51.432;6.880;2022-10-31T05:25:53;2.22;;;1.98;;
12059;SDS011;6091;51.432;6.880;2022-10-31T05:28:20;2.42;;;2.22;;
12059;SDS011;6091;51.432;6.880;2022-10-31T05:30:50;2.80;;;1.85;;
12059;SDS011;6091;51.432;6.880;2022-10-31T05:33:18;2.30;;;2.10;;
12059;SDS011;6091;51.432;6.880;2022-10-31T05:35:45;2.47;;;2.28;;
12059;SDS011;6091;51.432;6.880;2022-10-31T05:38:12;2.45;;;2.25;;
12059;SDS011;6091;51.432;6.880;2022-10-31T05:40:39;2.20;;;2.00;;
12059;SDS011;6091;51.432;6.880;2022-10-31T05:43:06;2.50;;;2.30;;
12059;SDS011;6091;51.432;6.880;2022-10-31T05:45:34;2.28;;;2.08;;
12059;SDS011;6091;51.432;6.880;2022-10-31T05:48:01;2.40;;;2.10;;
12059;SDS011;6091;51.432;6.880;2022-10-31T05:50:31;2.53;;;2.33;;
12059;SDS011;6091;51.432;6.880;2022-10-31T05:53:08;2.55;;;2.35;;
12059;SDS011;6091;51.432;6.880;2022-10-31T05:55:36;2.30;;;2.10;;
12059;SDS011;6091;51.432;6.880;2022-10-31T06:02:13;2.15;;;1.95;;
12059;SDS011;6091;51.432;6.880;2022-10-31T06:04:40;2.28;;;2.10;;
12059;SDS011;6091;51.432;6.880;2022-10-31T06:07:07;2.40;;;2.20;;
12059;SDS011;6091;51.432;6.880;2022-10-31T06:09:35;2.25;;;1.77;;
12059;SDS011;6091;51.432;6.880;2022-10-31T06:12:02;2.30;;;2.10;;
12059;SDS011;6091;51.432;6.880;2022-10-31T06:14:32;2.50;;;2.30;;
12059;SDS011;6091;51.432;6.880;2022-10-31T06:16:59;2.92;;;2.35;;
12059;SDS011;6091;51.432;6.880;2022-10-31T06:19:26;1.92;;;1.83;;
12059;SDS011;6091;51.432;6.880;2022-10-31T06:21:53;2.45;;;2.15;;
12059;SDS011;6091;51.432;6.880;2022-10-31T06:24:21;2.67;;;2.47;;
12059;SDS011;6091;51.432;6.880;2022-10-31T06:26:54;2.28;;;2.10;;
12059;SDS011;6091;51.432;6.880;2022-10-31T06:29:22;2.40;;;2.20;;
12059;SDS011;6091;51.432;6.880;2022-10-31T06:31:53;2.38;;;2.17;;
12059;SDS011;6091;51.432;6.880;2022-10-31T06:34:20;3.17;;;2.10;;
12059;SDS011;6091;51.432;6.880;2022-10-31T06:36:47;2.08;;;1.92;;
12059;SDS011;6091;51.432;6.880;2022-10-31T06:39:18;2.30;;;2.10;;
12059;SDS011;6091;51.432;6.880;2022-10-31T06:41:46;2.83;;;2.00;;
12059;SDS011;6091;51.432;6.880;2022-10-31T06:44:16;2.08;;;1.98;;
12059;SDS011;6091;51.432;6.880;2022-10-31T06:46:49;2.25;;;2.08;;
12059;SDS011;6091;51.432;6.880;2022-10-31T06:49:17;3.47;;;2.15;;
12059;SDS011;6091;51.432;6.880;2022-10-31T06:51:47;2.15;;;1.90;;
12059;SDS011;6091;51.432;6.880;2022-10-31T06:54:16;4.07;;;2.42;;
12059;SDS011;6091;51.432;6.880;2022-10-31T06:56:46;2.47;;;2.22;;
12059;SDS011;6091;51.432;6.880;2022-10-31T06:59:23;2.25;;;2.08;;
12059;SDS011;6091;51.432;6.880;2022-10-31T07:01:50;2.65;;;2.45;;
12059;SDS011;6091;51.432;6.880;2022-10-31T07:04:18;3.42;;;2.42;;
12059;SDS011;6091;51.432;6.880;2022-10-31T07:06:45;3.40;;;2.53;;
12059;SDS011;6091;51.432;6.880;2022-10-31T07:09:17;5.47;;;2.95;;
12059;SDS011;6091;51.432;6.880;2022-10-31T07:11:45;7.05;;;2.95;;
12059;SDS011;6091;51.432;6.880;2022-10-31T07:14:14;2.70;;;2.50;;
12059;SDS011;6091;51.432;6.880;2022-10-31T07:16:43;4.97;;;2.53;;
12059;SDS011;6091;51.432;6.880;2022-10-31T07:19:15;3.30;;;2.70;;
12059;SDS011;6091;51.432;6.880;2022-10-31T07:21:43;5.57;;;3.20;;
12059;SDS011;6091;51.432;6.880;2022-10-31T07:24:10;3.40;;;3.10;;
12059;SDS011;6091;51.432;6.880;2022-10-31T07:26:40;3.65;;;3.20;;
12059;SDS011;6091;51.432;6.880;2022-10-31T07:29:08;4.68;;;2.88;;
12059;SDS011;6091;51.432;6.880;2022-10-31T07:31:36;3.42;;;3.05;;
12059;SDS011;6091;51.432;6.880;2022-10-31T07:34:03;4.72;;;2.95;;
12059;SDS011;6091;51.432;6.880;2022-10-31T07:36:30;4.88;;;3.00;;
12059;SDS011;6091;51.432;6.880;2022-10-31T07:38:59;5.93;;;3.60;;
12059;SDS011;6091;51.432;6.880;2022-10-31T07:41:28;4.70;;;3.25;;
12059;SDS011;6091;51.432;6.880;2022-10-31T07:44:03;5.07;;;3.28;;
12059;SDS011;6091;51.432;6.880;2022-10-31T07:46:30;3.63;;;2.90;;
12059;SDS011;6091;51.432;6.880;2022-10-31T07:48:57;4.40;;;3.38;;
12059;SDS011;6091;51.432;6.880;2022-10-31T07:51:25;4.78;;;3.38;;
12059;SDS011;6091;51.432;6.880;2022-10-31T07:53:53;4.13;;;3.00;;
12059;SDS011;6091;51.432;6.880;2022-10-31T07:56:20;3.45;;;3.05;;
12059;SDS011;6091;51.432;6.880;2022-10-31T07:58:50;3.97;;;3.03;;
12059;SDS011;6091;51.432;6.880;2022-10-31T08:01:18;3.45;;;2.83;;
12059;SDS011;6091;51.432;6.880;2022-10-31T08:03:45;9.48;;;3.45;;
12059;SDS011;6091;51.432;6.880;2022-10-31T08:06:12;4.13;;;3.20;;
12059;SDS011;6091;51.432;6.880;2022-10-31T08:08:39;3.55;;;3.08;;
12059;SDS011;6091;51.432;6.880;2022-10-31T08:11:16;4.28;;;3.00;;
12059;SDS011;6091;51.432;6.880;2022-10-31T08:13:47;4.10;;;3.05;;
12059;SDS011;6091;51.432;6.880;2022-10-31T08:16:17;5.03;;;3.20;;
12059;SDS011;6091;51.432;6.880;2022-10-31T08:18:44;4.03;;;3.30;;
12059;SDS011;6091;51.432;6.880;2022-10-31T08:21:11;3.65;;;3.15;;
12059;SDS011;6091;51.432;6.880;2022-10-31T08:23:38;7.43;;;3.55;;
12059;SDS011;6091;51.432;6.880;2022-10-31T08:26:09;7.70;;;3.05;;
12059;SDS011;6091;51.432;6.880;2022-10-31T08:28:36;11.00;;;3.33;;
12059;SDS011;6091;51.432;6.880;2022-10-31T08:31:03;4.45;;;3.15;;
12059;SDS011;6091;51.432;6.880;2022-10-31T08:33:32;3.92;;;2.80;;
12059;SDS011;6091;51.432;6.880;2022-10-31T08:35:59;6.05;;;3.05;;
12059;SDS011;6091;51.432;6.880;2022-10-31T08:38:30;5.38;;;3.20;;
12059;SDS011;6091;51.432;6.880;2022-10-31T08:41:03;5.85;;;2.83;;
12059;SDS011;6091;51.432;6.880;2022-10-31T08:43:30;8.02;;;3.47;;
12059;SDS011;6091;51.432;6.880;2022-10-31T08:45:57;4.90;;;2.90;;
12059;SDS011;6091;51.432;6.880;2022-10-31T08:48:24;5.28;;;3.30;;
12059;SDS011;6091;51.432;6.880;2022-10-31T08:50:55;5.93;;;3.53;;
12059;SDS011;6091;51.432;6.880;2022-10-31T08:53:30;4.75;;;3.10;;
12059;SDS011;6091;51.432;6.880;2022-10-31T08:56:00;4.90;;;3.28;;
12059;SDS011;6091;51.432;6.880;2022-10-31T08:58:27;4.55;;;3.63;;
12059;SDS011;6091;51.432;6.880;2022-10-31T09:00:55;7.53;;;3.53;;
12059;SDS011;6091;51.432;6.880;2022-10-31T09:03:30;6.72;;;3.15;;
12059;SDS011;6091;51.432;6.880;2022-10-31T09:05:59;5.25;;;3.38;;
12059;SDS011;6091;51.432;6.880;2022-10-31T09:08:29;5.10;;;3.70;;
12059;SDS011;6091;51.432;6.880;2022-10-31T09:10:58;5.50;;;3.33;;
12059;SDS011;6091;51.432;6.880;2022-10-31T09:13:25;5.95;;;3.65;;
12059;SDS011;6091;51.432;6.880;2022-10-31T09:15:57;5.22;;;3.40;;
12059;SDS011;6091;51.432;6.880;2022-10-31T09:18:30;5.47;;;3.42;;
12059;SDS011;6091;51.432;6.880;2022-10-31T09:20:58;5.80;;;3.40;;
12059;SDS011;6091;51.432;6.880;2022-10-31T09:23:27;7.53;;;3.72;;
12059;SDS011;6091;51.432;6.880;2022-10-31T09:26:02;5.10;;;3.40;;
12059;SDS011;6091;51.432;6.880;2022-10-31T09:28:30;4.00;;;3.35;;
12059;SDS011;6091;51.432;6.880;2022-10-31T09:31:01;6.80;;;3.50;;
12059;SDS011;6091;51.432;6.880;2022-10-31T09:33:29;4.03;;;3.35;;
12059;SDS011;6091;51.432;6.880;2022-10-31T09:35:57;6.57;;;3.60;;
12059;SDS011;6091;51.432;6.880;2022-10-31T09:38:25;5.32;;;3.92;;
12059;SDS011;6091;51.432;6.880;2022-10-31T09:41:28;5.30;;;3.58;;
12059;SDS011;6091;51.432;6.880;2022-10-31T09:44:29;6.75;;;4.03;;
12059;SDS011;6091;51.432;6.880;2022-10-31T09:56:14;5.63;;;3.85;;
12059;SDS011;6091;51.432;6.880;2022-10-31T09:58:54;8.10;;;4.18;;
12059;SDS011;6091;51.432;6.880;2022-10-31T10:02:06;5.05;;;3.90;;
12059;SDS011;6091;51.432;6.880;2022-10-31T10:04:44;8.30;;;3.97;;
12059;SDS011;6091;51.432;6.880;2022-10-31T10:10:23;5.78;;;4.15;;
12059;SDS011;6091;51.432;6.880;2022-10-31T10:16:12;6.75;;;5.13;;
12059;SDS011;6091;51.432;6.880;2022-10-31T10:21:47;9.63;;;6.07;;
12059;SDS011;6091;51.432;6.880;2022-10-31T10:24:59;11.57;;;5.53;;
12059;SDS011;6091;51.432;6.880;2022-10-31T10:27:59;7.47;;;5.03;;
12059;SDS011;6091;51.432;6.880;2022-10-31T10:34:32;5.97;;;4.90;;
12059;SDS011;6091;51.432;6.880;2022-10-31T10:36:40;6.75;;;4.82;;
12059;SDS011;6091;51.432;6.880;2022-10-31T10:39:29;10.18;;;5.22;;
12059;SDS011;6091;51.432;6.880;2022-10-31T10:42:12;6.25;;;5.10;;
12059;SDS011;6091;51.432;6.880;2022-10-31T10:45:06;6.60;;;4.38;;
12059;SDS011;6091;51.432;6.880;2022-10-31T10:48:05;5.93;;;4.95;;
12059;SDS011;6091;51.432;6.880;2022-10-31T10:50:44;7.60;;;5.25;;
12059;SDS011;6091;51.432;6.880;2022-10-31T10:53:30;5.35;;;4.60;;
12059;SDS011;6091;51.432;6.880;2022-10-31T10:59:48;7.18;;;5.07;;
12059;SDS011;6091;51.432;6.880;2022-10-31T11:02:18;7.05;;;5.05;;
12059;SDS011;6091;51.432;6.880;2022-10-31T11:04:53;5.38;;;4.68;;
12059;SDS011;6091;51.432;6.880;2022-10-31T11:07:36;6.97;;;4.85;;
12059;SDS011;6091;51.432;6.880;2022-10-31T11:10:06;6.35;;;5.05;;
12059;SDS011;6091;51.432;6.880;2022-10-31T11:12:43;6.70;;;5.18;;
12059;SDS011;6091;51.432;6.880;2022-10-31T11:15:26;8.65;;;5.20;;
12059;SDS011;6091;51.432;6.880;2022-10-31T11:17:56;7.50;;;5.32;;
12059;SDS011;6091;51.432;6.880;2022-10-31T11:20:29;7.55;;;4.90;;
12059;SDS011;6091;51.432;6.880;2022-10-31T11:23:03;7.88;;;5.25;;
12059;SDS011;6091;51.432;6.880;2022-10-31T11:25:57;5.90;;;5.30;;
12059;SDS011;6091;51.432;6.880;2022-10-31T11:28:29;5.63;;;4.82;;
12059;SDS011;6091;51.432;6.880;2022-10-31T11:31:05;7.80;;;5.35;;
12059;SDS011;6091;51.432;6.880;2022-10-31T11:33:45;5.82;;;4.88;;
12059;SDS011;6091;51.432;6.880;2022-10-31T11:36:20;6.50;;;5.30;;
12059;SDS011;6091;51.432;6.880;2022-10-31T11:38:51;5.57;;;5.07;;
12059;SDS011;6091;51.432;6.880;2022-10-31T11:41:33;7.88;;;5.50;;
12059;SDS011;6091;51.432;6.880;2022-10-31T11:44:09;6.70;;;5.35;;
12059;SDS011;6091;51.432;6.880;2022-10-31T11:46:49;5.90;;;5.18;;
12059;SDS011;6091;51.432;6.880;2022-10-31T11:49:34;6.43;;;5.15;;
12059;SDS011;6091;51.432;6.880;2022-10-31T11:52:08;9.52;;;5.50;;
12059;SDS011;6091;51.432;6.880;2022-10-31T11:54:47;6.85;;;5.38;;
12059;SDS011;6091;51.432;6.880;2022-10-31T11:57:24;5.82;;;5.05;;
12059;SDS011;6091;51.432;6.880;2022-10-31T12:00:21;4.75;;;4.25;;
12059;SDS011;6091;51.432;6.880;2022-10-31T12:03:11;5.07;;;4.65;;
12059;SDS011;6091;51.432;6.880;2022-10-31T12:05:41;4.70;;;4.22;;
12059;SDS011;6091;51.432;6.880;2022-10-31T12:08:13;5.05;;;4.55;;
12059;SDS011;6091;51.432;6.880;2022-10-31T12:19:27;5.13;;;4.63;;
12059;SDS011;6091;51.432;6.880;2022-10-31T12:27:51;6.15;;;4.53;;
12059;SDS011;6091;51.432;6.880;2022-10-31T12:31:03;5.38;;;4.35;;
12059;SDS011;6091;51.432;6.880;2022-10-31T12:37:22;4.78;;;3.90;;
12059;SDS011;6091;51.432;6.880;2022-10-31T12:41:07;4.47;;;3.95;;
12059;SDS011;6091;51.432;6.880;2022-10-31T12:44:16;5.25;;;4.00;;
12059;SDS011;6091;51.432;6.880;2022-10-31T12:50:20;5.03;;;4.47;;
12059;SDS011;6091;51.432;6.880;2022-10-31T13:01:40;5.65;;;4.05;;
12059;SDS011;6091;51.432;6.880;2022-10-31T13:07:15;4.20;;;3.80;;
12059;SDS011;6091;51.432;6.880;2022-10-31T13:10:15;4.40;;;3.95;;
12059;SDS011;6091;51.432;6.880;2022-10-31T13:12:49;4.53;;;3.75;;
12059;SDS011;6091;51.432;6.880;2022-10-31T13:15:26;4.30;;;3.88;;
12059;SDS011;6091;51.432;6.880;2022-10-31T13:17:59;4.40;;;4.00;;
12059;SDS011;6091;51.432;6.880;2022-10-31T13:20:40;5.40;;;4.22;;
12059;SDS011;6091;51.432;6.880;2022-10-31T13:23:28;5.13;;;4.25;;
12059;SDS011;6091;51.432;6.880;2022-10-31T13:26:36;6.43;;;3.95;;
12059;SDS011;6091;51.432;6.880;2022-10-31T13:32:00;6.75;;;4.03;;
12059;SDS011;6091;51.432;6.880;2022-10-31T13:43:18;7.15;;;4.03;;
12059;SDS011;6091;51.432;6.880;2022-10-31T13:45:56;4.68;;;3.83;;
12059;SDS011;6091;51.432;6.880;2022-10-31T13:48:39;6.05;;;4.20;;
12059;SDS011;6091;51.432;6.880;2022-10-31T13:51:09;5.35;;;3.80;;
12059;SDS011;6091;51.432;6.880;2022-10-31T13:56:33;6.53;;;4.35;;
12059;SDS011;6091;51.432;6.880;2022-10-31T14:01:57;5.93;;;4.25;;
12059;SDS011;6091;51.432;6.880;2022-10-31T14:04:38;6.72;;;4.15;;
12059;SDS011;6091;51.432;6.880;2022-10-31T14:07:15;8.57;;;4.43;;
12059;SDS011;6091;51.432;6.880;2022-10-31T14:15:19;4.30;;;3.90;;
12059;SDS011;6091;51.432;6.880;2022-10-31T14:17:54;6.28;;;3.70;;
12059;SDS011;6091;51.432;6.880;2022-10-31T14:20:39;5.15;;;3.60;;
12059;SDS011;6091;51.432;6.880;2022-10-31T14:26:16;5.25;;;3.33;;
12059;SDS011;6091;51.432;6.880;2022-10-31T14:28:52;7.03;;;4.28;;
12059;SDS011;6091;51.432;6.880;2022-10-31T14:34:26;5.78;;;3.92;;
12059;SDS011;6091;51.432;6.880;2022-10-31T14:39:54;4.32;;;3.25;;
12059;SDS011;6091;51.432;6.880;2022-10-31T14:42:58;6.80;;;4.00;;
12059;SDS011;6091;51.432;6.880;2022-10-31T14:51:27;5.85;;;3.35;;
12059;SDS011;6091;51.432;6.880;2022-10-31T14:54:11;4.88;;;3.38;;
12059;SDS011;6091;51.432;6.880;2022-10-31T14:56:48;4.00;;;3.42;;
12059;SDS011;6091;51.432;6.880;2022-10-31T14:59:22;4.05;;;3.55;;
12059;SDS011;6091;51.432;6.880;2022-10-31T15:02:00;7.10;;;3.50;;
12059;SDS011;6091;51.432;6.880;2022-10-31T15:04:39;6.93;;;3.83;;
12059;SDS011;6091;51.432;6.880;2022-10-31T15:07:15;5.53;;;3.75;;
12059;SDS011;6091;51.432;6.880;2022-10-31T15:09:57;4.60;;;3.53;;
12059;SDS011;6091;51.432;6.880;2022-10-31T15:12:27;8.07;;;3.55;;
12059;SDS011;6091;51.432;6.880;2022-10-31T15:14:57;3.80;;;3.20;;
12059;SDS011;6091;51.432;6.880;2022-10-31T15:17:41;7.13;;;3.35;;
12059;SDS011;6091;51.432;6.880;2022-10-31T15:20:25;5.90;;;3.80;;
12059;SDS011;6091;51.432;6.880;2022-10-31T15:22:56;4.70;;;3.55;;
12059;SDS011;6091;51.432;6.880;2022-10-31T15:25:25;6.50;;;3.53;;
12059;SDS011;6091;51.432;6.880;2022-10-31T15:27:59;7.68;;;3.50;;
12059;SDS011;6091;51.432;6.880;2022-10-31T15:30:27;5.72;;;3.42;;
12059;SDS011;6091;51.432;6.880;2022-10-31T15:32:55;5.45;;;3.40;;
12059;SDS011;6091;51.432;6.880;2022-10-31T15:37:52;4.40;;;3.60;;
12059;SDS011;6091;51.432;6.880;2022-10-31T15:40:21;7.95;;;3.30;;
12059;SDS011;6091;51.432;6.880;2022-10-31T15:42:57;4.97;;;2.90;;
12059;SDS011;6091;51.432;6.880;2022-10-31T15:45:31;8.23;;;3.65;;
12059;SDS011;6091;51.432;6.880;2022-10-31T15:48:01;5.68;;;2.95;;
12059;SDS011;6091;51.432;6.880;2022-10-31T15:50:53;3.67;;;2.95;;
12059;SDS011;6091;51.432;6.880;2022-10-31T15:53:26;5.30;;;3.22;;
12059;SDS011;6091;51.432;6.880;2022-10-31T15:56:02;4.53;;;2.90;;
12059;SDS011;6091;51.432;6.880;2022-10-31T15:58:39;7.25;;;3.20;;
12059;SDS011;6091;51.432;6.880;2022-10-31T16:01:27;3.55;;;3.08;;
12059;SDS011;6091;51.432;6.880;2022-10-31T16:04:31;4.57;;;2.90;;
12059;SDS011;6091;51.432;6.880;2022-10-31T16:07:01;5.85;;;3.47;;
12059;SDS011;6091;51.432;6.880;2022-10-31T16:09:57;4.53;;;3.08;;
12059;SDS011;6091;51.432;6.880;2022-10-31T16:12:36;6.97;;;3.50;;
12059;SDS011;6091;51.432;6.880;2022-10-31T16:15:13;4.13;;;3.10;;
12059;SDS011;6091;51.432;6.880;2022-10-31T16:17:46;3.80;;;2.97;;
12059;SDS011;6091;51.432;6.880;2022-10-31T16:20:26;4.30;;;3.10;;
12059;SDS011;6091;51.432;6.880;2022-10-31T16:22:58;4.60;;;3.08;;
12059;SDS011;6091;51.432;6.880;2022-10-31T16:25:34;4.55;;;3.58;;
12059;SDS011;6091;51.432;6.880;2022-10-31T16:28:05;3.70;;;2.85;;
12059;SDS011;6091;51.432;6.880;2022-10-31T16:30:43;4.53;;;2.92;;
12059;SDS011;6091;51.432;6.880;2022-10-31T16:33:34;3.25;;;2.95;;
12059;SDS011;6091;51.432;6.880;2022-10-31T16:39:04;4.65;;;3.05;;
12059;SDS011;6091;51.432;6.880;2022-10-31T16:41:39;4.63;;;2.85;;
12059;SDS011;6091;51.432;6.880;2022-10-31T16:46:55;3.30;;;2.70;;
12059;SDS011;6091;51.432;6.880;2022-10-31T16:49:42;3.85;;;2.72;;
12059;SDS011;6091;51.432;6.880;2022-10-31T16:52:12;3.38;;;2.60;;
12059;SDS011;6091;51.432;6.880;2022-10-31T16:54:39;3.20;;;2.90;;
12059;SDS011;6091;51.432;6.880;2022-10-31T16:57:06;2.80;;;2.60;;
12059;SDS011;6091;51.432;6.880;2022-10-31T16:59:42;2.95;;;2.42;;
12059;SDS011;6091;51.432;6.880;2022-10-31T17:02:13;2.80;;;2.60;;
12059;SDS011;6091;51.432;6.880;2022-10-31T17:04:42;3.33;;;2.90;;
12059;SDS011;6091;51.432;6.880;2022-10-31T17:07:10;4.90;;;2.60;;
12059;SDS011;6091;51.432;6.880;2022-10-31T17:09:37;3.25;;;2.80;;
12059;SDS011;6091;51.432;6.880;2022-10-31T17:12:04;2.60;;;2.40;;
12059;SDS011;6091;51.432;6.880;2022-10-31T17:14:38;3.05;;;2.60;;
12059;SDS011;6091;51.432;6.880;2022-10-31T17:17:06;3.75;;;2.17;;
12059;SDS011;6091;51.432;6.880;2022-10-31T17:19:34;2.65;;;2.45;;
12059;SDS011;6091;51.432;6.880;2022-10-31T17:22:01;2.55;;;2.35;;
12059;SDS011;6091;51.432;6.880;2022-10-31T17:24:28;2.40;;;2.20;;
12059;SDS011;6091;51.432;6.880;2022-10-31T17:26:55;3.25;;;2.72;;
12059;SDS011;6091;51.432;6.880;2022-10-31T17:29:22;4.30;;;3.38;;
12059;SDS011;6091;51.432;6.880;2022-10-31T17:31:49;8.30;;;3.13;;
12059;SDS011;6091;51.432;6.880;2022-10-31T17:34:16;3.70;;;2.85;;
12059;SDS011;6091;51.432;6.880;2022-10-31T17:36:48;5.43;;;2.92;;
12059;SDS011;6091;51.432;6.880;2022-10-31T17:39:20;4.50;;;2.72;;
12059;SDS011;6091;51.432;6.880;2022-10-31T17:41:51;4.07;;;3.00;;
12059;SDS011;6091;51.432;6.880;2022-10-31T17:44:18;4.65;;;3.17;;
12059;SDS011;6091;51.432;6.880;2022-10-31T17:46:45;5.35;;;3.25;;
12059;SDS011;6091;51.432;6.880;2022-10-31T17:49:12;5.85;;;3.33;;
12059;SDS011;6091;51.432;6.880;2022-10-31T17:51:39;3.17;;;2.53;;
12059;SDS011;6091;51.432;6.880;2022-10-31T17:54:06;3.63;;;2.33;;
12059;SDS011;6091;51.432;6.880;2022-10-31T17:56:34;3.17;;;2.63;;
12059;SDS011;6091;51.432;6.880;2022-10-31T17:59:01;6.85;;;2.80;;
12059;SDS011;6091;51.432;6.880;2022-10-31T18:01:28;2.97;;;2.63;;
12059;SDS011;6091;51.432;6.880;2022-10-31T18:03:55;4.00;;;2.67;;